Time;durP1;ratioP1;P1;durP2;ratioP2;P2;SDS_P1;SDS_P2;PMS_P1;PMS_P2;Temp;Humidity;BMP_temperature;BMP_pressure;BME280_temperature;BME280_humidity;BME280_pressure;Samples;Min_cycle;Max_cycle;Signal;HPM_P1;HPM_P2
2021/03/29 00:02:28;;;;;;;24.65;4.45;;;18.20;72.20;;;;;;5016526;27;95640;-57
2021/03/29 00:04:58;;;;;;;19.10;4.20;;;18.10;69.50;;;;;;5021437;27;96495;-46
2021/03/29 00:07:32;;;;;;;22.05;3.33;;;18.10;72.50;;;;;;5023073;28;95424;-45
2021/03/29 00:10:07;;;;;;;13.57;3.53;;;18.00;71.70;;;;;;5020510;27;99050;-56
2021/03/29 00:12:40;;;;;;;20.40;4.97;;;18.00;71.80;;;;;;5022270;28;95781;-44
2021/03/29 00:15:26;;;;;;;18.08;3.95;;;18.10;73.10;;;;;;5019235;27;96630;-44
2021/03/29 00:17:56;;;;;;;16.35;3.65;;;18.30;74.30;;;;;;5018653;27;95891;-57
2021/03/29 00:20:29;;;;;;;14.32;3.25;;;18.30;73.20;;;;;;5019229;27;96034;-57
2021/03/29 00:23:01;;;;;;;21.85;4.40;;;18.40;72.50;;;;;;5007066;27;95797;-43
2021/03/29 00:25:32;;;;;;;9.27;2.53;;;18.40;72.30;;;;;;5001836;28;95878;-45
2021/03/29 00:29:58;;;;;;;14.40;3.55;;;18.40;73.90;;;;;;5065707;27;97821;-44
2021/03/29 00:32:28;;;;;;;15.45;3.15;;;18.50;71.60;;;;;;5025458;27;108723;-44
2021/03/29 00:34:58;;;;;;;11.73;2.97;;;18.50;72.30;;;;;;5031214;27;109954;-44
2021/03/29 00:37:28;;;;;;;13.82;3.97;;;18.60;72.30;;;;;;4946328;27;2394751;-44
2021/03/29 00:39:58;;;;;;;14.85;3.35;;;18.70;71.30;;;;;;5027479;27;125528;-54
2021/03/29 00:42:28;;;;;;;14.60;3.83;;;18.50;68.60;;;;;;5041496;27;110594;-45
2021/03/29 00:45:00;;;;;;;17.08;3.90;;;18.40;71.00;;;;;;5030276;27;109910;-55
2021/03/29 00:47:32;;;;;;;17.10;4.25;;;18.50;69.60;;;;;;5023339;27;123675;-56
2021/03/29 00:50:09;;;;;;;;;;;18.50;68.70;;;;;;5020007;27;123043;-55
2021/03/29 00:52:42;;;;;;;16.17;4.13;;;18.50;69.40;;;;;;5024840;27;110303;-55
2021/03/29 00:55:14;;;;;;;17.30;4.32;;;18.50;68.40;;;;;;5029364;27;102966;-44
2021/03/29 00:57:45;;;;;;;24.10;5.10;;;18.50;69.20;;;;;;5024814;27;125104;-54
2021/03/29 01:00:21;;;;;;;15.80;4.10;;;18.70;67.60;;;;;;5022328;27;124209;-52
2021/03/29 01:02:52;;;;;;;14.07;3.88;;;18.70;67.20;;;;;;5025441;27;116627;-56
2021/03/29 01:05:23;;;;;;;15.25;3.15;;;18.80;69.70;;;;;;5028357;27;110131;-55
2021/03/29 01:07:54;;;;;;;15.52;4.72;;;18.80;67.60;;;;;;5019898;27;126128;-56
2021/03/29 01:10:24;;;;;;;20.13;5.85;;;18.80;68.80;;;;;;5027646;27;125023;-56
2021/03/29 01:12:58;;;;;;;17.48;5.10;;;18.80;68.80;;;;;;5023732;27;109206;-56
2021/03/29 01:15:30;;;;;;;15.10;4.25;;;18.80;67.80;;;;;;5024244;27;109442;-53
2021/03/29 01:18:03;;;;;;;13.05;3.17;;;18.80;68.60;;;;;;5023905;27;124780;-44
2021/03/29 01:20:48;;;;;;;12.85;4.50;;;18.90;69.70;;;;;;5027420;27;124261;-54
2021/03/29 01:23:20;;;;;;;11.63;3.85;;;19.20;65.20;;;;;;5019160;27;110715;-55
2021/03/29 01:26:18;;;;;;;28.75;7.75;;;19.20;67.70;;;;;;5016354;27;109915;-56
2021/03/29 01:28:50;;;;;;;16.50;3.97;;;19.30;66.70;;;;;;4996064;27;125486;-55
2021/03/29 01:31:20;;;;;;;10.38;3.38;;;19.30;67.20;;;;;;5001086;27;125237;-57
2021/03/29 01:33:51;;;;;;;11.95;3.53;;;19.20;64.80;;;;;;4992493;27;114476;-55
2021/03/29 01:36:22;;;;;;;10.18;3.05;;;19.10;65.70;;;;;;5000753;27;117002;-56
2021/03/29 01:38:54;;;;;;;12.93;4.13;;;19.00;66.20;;;;;;5019177;27;123876;-55
2021/03/29 01:41:25;;;;;;;21.38;4.05;;;19.20;68.90;;;;;;5006686;27;124115;-53
2021/03/29 01:43:57;;;;;;;17.53;4.13;;;19.30;66.30;;;;;;5014342;27;109179;-55
2021/03/29 01:46:30;;;;;;;14.15;3.33;;;19.30;66.10;;;;;;5007917;27;110168;-54
2021/03/29 01:49:02;;;;;;;17.40;4.38;;;19.20;63.80;;;;;;5022286;27;125589;-56
2021/03/29 01:51:35;;;;;;;15.98;3.65;;;19.20;63.70;;;;;;5014038;27;123712;-46
2021/03/29 01:54:07;;;;;;;15.52;3.80;;;19.20;64.40;;;;;;5005974;27;108492;-57
2021/03/29 01:56:40;;;;;;;11.00;4.03;;;19.40;66.70;;;;;;5006295;27;109662;-45
2021/03/29 01:59:10;;;;;;;16.52;3.47;;;19.70;64.70;;;;;;5003901;27;132594;-56
2021/03/29 02:01:40;;;;;;;9.45;3.35;;;19.80;65.20;;;;;;5007599;27;125100;-44
2021/03/29 02:04:10;;;;;;;12.32;3.17;;;19.90;62.50;;;;;;5007443;28;116459;-45
2021/03/29 02:06:43;;;;;;;10.13;3.60;;;20.10;66.20;;;;;;5010098;27;109100;-54
2021/03/29 02:09:12;;;;;;;;;;;20.20;64.10;;;;;;5006430;27;129633;-46
2021/03/29 02:11:42;;;;;;;16.65;3.50;;;20.30;63.40;;;;;;5010118;27;123145;-53
2021/03/29 02:14:13;;;;;;;12.40;3.85;;;20.50;62.50;;;;;;5003286;27;116828;-45
2021/03/29 02:16:46;;;;;;;8.30;2.42;;;20.50;61.80;;;;;;4998629;27;109769;-45
2021/03/29 02:19:17;;;;;;;11.55;3.30;;;20.50;64.40;;;;;;5007035;27;131463;-45
2021/03/29 02:21:50;;;;;;;13.45;3.67;;;20.60;62.60;;;;;;5011847;27;124783;-55
2021/03/29 02:24:22;;;;;;;11.43;2.60;;;20.80;61.90;;;;;;5005711;28;110612;-46
2021/03/29 02:26:54;;;;;;;12.07;3.28;;;20.80;61.90;;;;;;5010137;27;110342;-45
2021/03/29 02:29:29;;;;;;;8.95;2.47;;;20.80;62.60;;;;;;5004868;28;125174;-56
2021/03/29 02:32:00;;;;;;;10.05;2.47;;;20.70;63.80;;;;;;5003081;28;123251;-45
2021/03/29 02:34:32;;;;;;;11.37;3.50;;;20.70;62.30;;;;;;5015300;28;109450;-52
2021/03/29 02:37:03;;;;;;;10.57;3.65;;;20.70;62.90;;;;;;5013778;27;109528;-55
2021/03/29 02:39:35;;;;;;;8.57;2.53;;;20.70;60.60;;;;;;5010134;28;125237;-54
2021/03/29 02:42:08;;;;;;;9.27;3.08;;;20.60;63.20;;;;;;5010089;28;123639;-45
2021/03/29 02:44:40;;;;;;;7.32;2.95;;;20.60;61.90;;;;;;5017251;28;108910;-45
2021/03/29 02:47:12;;;;;;;11.45;3.13;;;20.40;60.10;;;;;;5012220;27;109886;-56
2021/03/29 02:49:45;;;;;;;14.27;2.80;;;20.30;60.80;;;;;;5010146;28;125089;-44
2021/03/29 02:52:17;;;;;;;6.07;2.40;;;20.40;62.50;;;;;;4991961;28;122970;-45
2021/03/29 02:54:50;;;;;;;11.48;3.40;;;20.50;62.00;;;;;;5014386;28;108736;-45
2021/03/29 02:57:23;;;;;;;10.25;3.72;;;20.60;61.90;;;;;;5008543;28;108063;-56
2021/03/29 02:59:54;;;;;;;11.70;3.53;;;20.60;59.20;;;;;;5012093;28;124977;-43
2021/03/29 03:02:26;;;;;;;8.95;3.50;;;20.70;61.50;;;;;;5003151;28;124383;-45
2021/03/29 03:04:58;;;;;;;11.15;2.63;;;20.60;59.40;;;;;;5010715;28;109830;-45
2021/03/29 03:07:30;;;;;;;10.90;2.80;;;20.70;63.40;;;;;;5007079;28;109795;-56
2021/03/29 03:10:00;;;;;;;10.57;2.85;;;20.70;63.00;;;;;;5007582;28;125925;-55
2021/03/29 03:12:31;;;;;;;10.73;3.63;;;20.80;62.20;;;;;;5008952;28;125327;-45
2021/03/29 03:15:07;;;;;;;7.95;2.85;;;20.80;57.40;;;;;;5010608;28;108560;-44
2021/03/29 03:17:38;;;;;;;13.27;3.03;;;20.70;60.90;;;;;;5005514;27;109999;-44
2021/03/29 03:20:13;;;;;;;9.80;2.75;;;20.80;61.50;;;;;;5022211;27;125141;-55
2021/03/29 03:22:50;;;;;;;9.35;2.88;;;20.80;62.50;;;;;;5006842;28;122720;-44
2021/03/29 03:25:24;;;;;;;11.68;2.90;;;20.90;63.00;;;;;;5012784;28;110176;-45
2021/03/29 03:28:01;;;;;;;11.85;3.28;;;20.90;61.00;;;;;;5007715;28;110476;-45
2021/03/29 03:30:34;;;;;;;14.60;3.13;;;20.80;58.70;;;;;;5007907;27;125489;-45
2021/03/29 03:33:06;;;;;;;5.88;2.17;;;20.70;59.00;;;;;;5007719;28;124100;-45
2021/03/29 03:35:40;;;;;;;11.07;2.63;;;20.80;62.10;;;;;;5006168;28;109962;-45
2021/03/29 03:38:16;;;;;;;11.38;3.35;;;20.80;60.70;;;;;;5003732;28;109380;-45
2021/03/29 03:40:56;;;;;;;7.03;2.95;;;20.80;59.80;;;;;;5011709;28;125983;-45
2021/03/29 03:43:37;;;;;;;5.18;2.20;;;20.70;58.30;;;;;;5008002;28;124214;-45
2021/03/29 03:46:16;;;;;;;11.73;3.08;;;20.80;60.80;;;;;;5004789;28;110628;-44
2021/03/29 03:48:48;;;;;;;10.05;2.58;;;20.80;58.50;;;;;;5008317;28;110238;-44
2021/03/29 03:51:28;;;;;;;7.55;2.53;;;20.90;61.80;;;;;;5010038;28;125567;-45
2021/03/29 03:54:01;;;;;;;9.10;2.83;;;20.90;61.50;;;;;;5002975;28;124108;-44
2021/03/29 03:56:33;;;;;;;8.13;2.58;;;20.90;57.90;;;;;;5025147;27;110499;-44
2021/03/29 03:59:07;;;;;;;;;;;20.90;59.60;;;;;;5010022;28;109105;-45
2021/03/29 04:02:15;;;;;;;12.00;3.08;;;20.90;57.60;;;;;;5009708;27;123888;-45
2021/03/29 04:04:47;;;;;;;8.68;2.28;;;20.70;59.20;;;;;;4957372;28;125261;-46
2021/03/29 04:07:17;;;;;;;8.48;3.05;;;20.70;57.50;;;;;;4959311;28;109891;-44
2021/03/29 04:09:56;;;;;;;12.90;3.13;;;20.60;58.80;;;;;;4957204;28;109356;-45
2021/03/29 04:12:28;;;;;;;9.90;2.90;;;20.60;58.50;;;;;;4959773;28;124694;-44
2021/03/29 04:14:59;;;;;;;11.73;3.95;;;20.60;58.80;;;;;;4955411;28;125734;-47
2021/03/29 04:17:28;;;;;;;11.68;2.67;;;20.60;58.70;;;;;;4956100;28;110109;-46
2021/03/29 04:19:58;;;;;;;7.40;2.45;;;20.50;58.60;;;;;;4958291;28;108744;-45
2021/03/29 04:22:30;;;;;;;9.32;3.00;;;20.60;59.90;;;;;;4959616;28;124497;-45
2021/03/29 04:25:00;;;;;;;6.47;2.50;;;20.50;59.40;;;;;;4955607;28;125038;-45
2021/03/29 04:27:31;;;;;;;9.40;3.25;;;20.50;61.40;;;;;;4953936;28;109869;-53
2021/03/29 04:30:04;;;;;;;17.48;4.18;;;20.50;60.00;;;;;;4955511;28;111188;-45
2021/03/29 04:32:35;;;;;;;13.05;3.60;;;20.50;57.20;;;;;;4942762;28;125979;-45
2021/03/29 04:35:06;;;;;;;13.45;3.58;;;20.50;58.90;;;;;;4967072;28;124025;-45
2021/03/29 04:37:36;;;;;;;7.55;2.72;;;20.50;59.40;;;;;;4988833;28;108910;-46
2021/03/29 04:40:06;;;;;;;11.75;2.78;;;20.60;59.70;;;;;;4984594;28;109916;-45
2021/03/29 04:42:36;;;;;;;8.45;2.65;;;20.60;60.00;;;;;;4987310;28;123433;-44
2021/03/29 04:45:09;;;;;;;8.43;2.58;;;20.60;59.20;;;;;;4967622;28;125437;-44
2021/03/29 04:47:41;;;;;;;7.72;2.58;;;20.80;59.80;;;;;;5009625;27;111615;-44
2021/03/29 04:50:15;;;;;;;11.98;2.83;;;20.90;59.60;;;;;;5006909;28;109801;-45
2021/03/29 04:52:47;;;;;;;7.80;1.98;;;21.10;59.80;;;;;;5009779;28;125562;-44
2021/03/29 04:55:20;;;;;;;9.40;2.67;;;21.20;58.80;;;;;;5003193;28;124040;-44
2021/03/29 04:57:51;;;;;;;9.18;2.95;;;21.30;58.90;;;;;;5011202;28;112781;-44
2021/03/29 05:00:23;;;;;;;5.93;1.83;;;21.30;58.40;;;;;;4995614;28;111042;-45
2021/03/29 05:02:55;;;;;;;6.47;1.80;;;21.30;58.60;;;;;;5006185;28;125047;-45
2021/03/29 05:05:27;;;;;;;6.97;2.40;;;21.20;58.20;;;;;;5006978;28;125044;-45
2021/03/29 05:07:58;;;;;;;7.80;1.85;;;21.20;56.70;;;;;;5008087;28;113434;-44
2021/03/29 05:10:27;;;;;;;12.95;3.35;;;21.20;56.90;;;;;;5012047;28;109773;-45
2021/03/29 05:12:59;;;;;;;9.32;2.30;;;21.10;56.80;;;;;;5009480;28;125562;-44
2021/03/29 05:15:31;;;;;;;10.85;2.28;;;21.10;55.30;;;;;;5004709;27;123888;-45
2021/03/29 05:18:01;;;;;;;9.73;2.78;;;21.10;56.00;;;;;;5004588;28;110110;-45
2021/03/29 05:20:33;;;;;;;8.95;2.45;;;21.10;53.40;;;;;;5014574;28;108955;-44
2021/03/29 05:23:03;;;;;;;6.65;2.05;;;21.00;52.90;;;;;;5010484;28;124444;-44
2021/03/29 05:25:33;;;;;;;11.38;2.70;;;21.00;53.80;;;;;;5010784;28;124334;-44
2021/03/29 05:28:04;;;;;;;10.65;2.55;;;21.00;54.10;;;;;;5011189;28;112834;-47
2021/03/29 05:30:35;;;;;;;7.22;2.78;;;21.00;53.80;;;;;;5011020;28;109859;-44
2021/03/29 05:33:07;;;;;;;10.60;2.85;;;21.00;54.60;;;;;;5005056;28;126462;-44
2021/03/29 05:35:38;;;;;;;10.00;2.33;;;20.90;53.80;;;;;;5009394;28;123567;-44
2021/03/29 05:38:08;;;;;;;9.43;2.42;;;21.00;52.80;;;;;;5010168;28;113069;-44
2021/03/29 05:40:38;;;;;;;7.75;2.13;;;21.00;54.00;;;;;;5019729;28;108422;-52
2021/03/29 05:43:09;;;;;;;6.00;2.33;;;21.10;54.10;;;;;;5007042;28;123546;-46
2021/03/29 05:45:45;;;;;;;8.80;2.50;;;21.40;55.00;;;;;;5010121;28;124763;-46
2021/03/29 05:48:17;;;;;;;5.93;2.42;;;21.60;55.20;;;;;;5008170;28;110860;-45
2021/03/29 05:50:49;;;;;;;5.05;1.63;;;21.80;54.90;;;;;;5004184;28;109990;-45
2021/03/29 05:53:21;;;;;;;6.43;2.42;;;21.90;54.10;;;;;;5007165;28;125452;-45
2021/03/29 05:55:54;;;;;;;9.77;3.00;;;22.10;53.40;;;;;;5014131;28;124118;-45
2021/03/29 06:00:54;;;;;;;6.43;2.70;;;22.40;52.50;;;;;;5007447;27;109791;-44
2021/03/29 06:03:31;;;;;;;6.80;2.38;;;22.40;52.80;;;;;;5013053;28;125047;-45
2021/03/29 06:06:06;;;;;;;7.65;2.60;;;22.50;52.10;;;;;;5008530;28;124855;-44
2021/03/29 06:08:47;;;;;;;6.50;2.58;;;22.60;51.80;;;;;;5003697;28;111813;-45
2021/03/29 06:11:36;;;;;;;7.93;2.27;;;22.70;52.50;;;;;;5024050;27;107638;-45
2021/03/29 06:14:23;;;;;;;6.03;2.55;;;22.80;51.80;;;;;;5011045;28;123984;-44
2021/03/29 06:17:03;;;;;;;8.32;3.15;;;22.90;52.30;;;;;;4983616;28;123240;-46
2021/03/29 06:19:49;;;;;;;10.38;3.13;;;23.00;51.40;;;;;;4974521;28;111994;-45
2021/03/29 06:22:22;;;;;;;8.52;2.97;;;23.00;51.40;;;;;;4973705;28;108646;-44
2021/03/29 06:25:07;;;;;;;9.27;3.15;;;23.10;51.40;;;;;;4972902;28;124406;-46
2021/03/29 06:27:57;;;;;;;7.68;2.70;;;23.10;52.10;;;;;;4977521;28;123177;-57
2021/03/29 06:30:36;;;;;;;7.10;3.05;;;22.90;51.10;;;;;;4971760;28;111064;-46
2021/03/29 06:33:15;;;;;;;8.98;2.58;;;22.60;52.30;;;;;;4989317;28;116173;-46
2021/03/29 06:35:55;;;;;;;6.68;2.17;;;22.50;52.20;;;;;;4987912;28;124020;-46
2021/03/29 06:38:36;;;;;;;7.50;2.35;;;22.20;51.70;;;;;;4989616;28;125048;-45
2021/03/29 06:41:06;;;;;;;9.50;2.58;;;22.10;49.00;;;;;;4982866;28;112717;-50
2021/03/29 06:43:37;;;;;;;8.45;2.67;;;21.90;51.20;;;;;;4987179;28;109650;-45
2021/03/29 06:46:20;;;;;;;6.60;2.42;;;21.80;50.60;;;;;;4986574;28;125208;-57
2021/03/29 06:48:59;;;;;;;7.88;2.20;;;21.80;50.80;;;;;;5006655;28;125250;-56
2021/03/29 06:51:34;;;;;;;7.57;2.15;;;21.70;52.30;;;;;;5023837;27;112604;-46
2021/03/29 06:54:11;;;;;;;9.43;2.65;;;21.60;51.30;;;;;;5012495;28;110000;-57
2021/03/29 06:56:47;;;;;;;8.05;2.63;;;21.60;52.10;;;;;;5005521;28;125348;-56
2021/03/29 06:59:22;;;;;;;6.93;2.60;;;21.50;52.40;;;;;;5004731;28;122905;-46
2021/03/29 07:01:58;;;;;;;5.53;2.25;;;21.50;50.40;;;;;;5005654;28;109929;-57
2021/03/29 07:04:32;;;;;;;8.70;2.53;;;21.40;51.50;;;;;;4992721;28;109584;-56
2021/03/29 07:07:05;;;;;;;8.98;2.78;;;21.30;53.90;;;;;;5008287;28;125742;-46
2021/03/29 07:09:37;;;;;;;15.90;3.90;;;21.30;54.90;;;;;;5010121;28;124967;-46
2021/03/29 07:12:08;;;;;;;7.03;2.90;;;21.20;52.50;;;;;;5006418;28;111417;-55
2021/03/29 07:14:38;;;;;;;7.17;3.17;;;21.10;53.90;;;;;;5005310;28;108213;-46
2021/03/29 07:17:10;;;;;;;6.05;2.33;;;21.10;55.30;;;;;;5002040;27;125565;-45
2021/03/29 07:19:47;;;;;;;7.65;3.03;;;20.90;54.20;;;;;;5010531;28;124821;-46
2021/03/29 07:22:20;;;;;;;9.52;3.17;;;20.90;54.00;;;;;;5007468;28;111878;-46
2021/03/29 07:24:52;;;;;;;9.35;2.53;;;20.80;53.00;;;;;;5013669;28;110143;-46
2021/03/29 07:27:22;;;;;;;6.47;2.55;;;20.80;54.70;;;;;;5006529;28;124641;-46
2021/03/29 07:29:53;;;;;;;10.20;2.97;;;20.90;54.50;;;;;;5007819;28;125473;-56
2021/03/29 07:32:37;;;;;;;13.95;2.88;;;21.00;55.40;;;;;;4971499;28;112497;-45
2021/03/29 07:35:08;;;;;;;8.45;3.53;;;21.00;55.80;;;;;;4976301;28;109977;-54
2021/03/29 07:37:44;;;;;;;7.43;3.13;;;21.00;56.50;;;;;;4972079;28;124930;-56
2021/03/29 07:40:20;;;;;;;12.43;3.92;;;21.00;54.80;;;;;;4980258;28;123233;-53
2021/03/29 07:42:51;;;;;;;9.88;3.60;;;20.80;55.00;;;;;;4972357;28;111359;-50
2021/03/29 07:45:48;;;;;;;14.35;4.50;;;20.60;56.40;;;;;;4973115;28;108359;-43
2021/03/29 07:48:40;;;;;;;13.13;3.88;;;20.50;55.80;;;;;;4995261;28;132232;-44
2021/03/29 07:51:14;;;;;;;13.50;3.58;;;20.30;56.40;;;;;;4989127;28;123059;-44
2021/03/29 07:53:53;;;;;;;8.95;3.10;;;20.20;55.70;;;;;;5004602;28;113291;-54
2021/03/29 07:56:37;;;;;;;7.93;2.78;;;20.10;57.00;;;;;;4994043;28;110358;-51
2021/03/29 07:59:06;;;;;;;10.85;3.20;;;20.10;58.10;;;;;;4990690;28;125657;-44
2021/03/29 08:01:59;;;;;;;9.40;3.10;;;20.00;58.30;;;;;;4999785;28;124945;-45
2021/03/29 08:05:01;;;;;;;8.95;2.63;;;19.90;58.10;;;;;;4991260;28;110577;-44
2021/03/29 08:07:41;;;;;;;10.48;2.70;;;19.90;59.10;;;;;;4995005;28;108638;-44
2021/03/29 08:10:15;;;;;;;6.00;2.88;;;19.80;58.20;;;;;;4995773;28;124367;-44
2021/03/29 08:13:01;;;;;;;9.73;2.92;;;19.80;58.20;;;;;;5002726;28;124418;-44
2021/03/29 08:16:01;;;;;;;10.90;3.60;;;19.70;58.90;;;;;;5003106;28;109677;-46
2021/03/29 08:19:07;;;;;;;8.68;2.67;;;19.60;59.00;;;;;;4989290;28;109306;-55
2021/03/29 08:22:04;;;;;;;12.38;2.78;;;19.60;60.20;;;;;;4988236;28;125844;-55
2021/03/29 08:24:46;;;;;;;11.13;2.75;;;19.50;59.60;;;;;;5002964;28;122607;-44
2021/03/29 08:27:19;;;;;;;7.85;2.50;;;19.40;60.70;;;;;;5004773;28;112781;-56
2021/03/29 08:29:56;;;;;;;14.82;3.03;;;19.40;60.00;;;;;;4996665;28;109111;-45
2021/03/29 08:32:32;;;;;;;9.40;2.85;;;19.30;60.60;;;;;;4995795;28;126063;-45
2021/03/29 08:35:15;;;;;;;6.25;2.13;;;19.20;61.80;;;;;;5000959;28;127875;-50
2021/03/29 08:37:50;;;;;;;11.07;2.60;;;19.20;61.70;;;;;;5012522;27;111866;-54
2021/03/29 08:40:35;;;;;;;6.13;2.47;;;19.20;62.30;;;;;;4999132;28;109933;-55
2021/03/29 08:43:07;;;;;;;11.52;2.85;;;19.10;63.20;;;;;;5002570;28;125409;-54
2021/03/29 08:45:38;;;;;;;9.35;2.67;;;19.00;63.50;;;;;;4994151;28;123019;-55
2021/03/29 08:48:10;;;;;;;9.18;2.40;;;19.00;62.60;;;;;;5002471;28;111687;-44
2021/03/29 08:50:42;;;;;;;12.30;2.70;;;18.90;64.50;;;;;;4997466;28;109866;-54
2021/03/29 08:53:15;;;;;;;11.85;3.90;;;18.90;64.90;;;;;;4999190;28;124133;-56
2021/03/29 08:55:46;;;;;;;11.50;3.55;;;18.80;62.70;;;;;;5000550;28;123032;-53
2021/03/29 08:58:17;;;;;;;;;;;18.80;61.60;;;;;;5011075;28;108307;-53
2021/03/29 09:00:47;;;;;;;12.52;2.83;;;18.60;61.00;;;;;;4999875;28;109608;-53
2021/03/29 09:03:24;;;;;;;15.68;3.22;;;18.50;61.00;;;;;;5005035;28;124815;-51
2021/03/29 09:05:56;;;;;;;6.95;2.20;;;18.40;61.70;;;;;;5004104;28;127276;-55
2021/03/29 09:08:27;;;;;;;8.80;2.42;;;18.40;62.10;;;;;;5006848;28;111771;-53
2021/03/29 09:11:04;;;;;;;13.05;3.55;;;18.40;61.50;;;;;;4998828;28;108363;-53
2021/03/29 09:13:36;;;;;;;4.93;2.63;;;18.30;61.60;;;;;;5004920;28;125651;-51
2021/03/29 09:16:09;;;;;;;8.20;2.90;;;18.20;61.50;;;;;;4996270;28;125047;-44
2021/03/29 09:18:39;;;;;;;5.40;2.55;;;18.10;62.20;;;;;;5007330;28;116197;-44
2021/03/29 09:21:11;;;;;;;9.60;3.40;;;18.00;61.60;;;;;;5002219;28;108400;-43
2021/03/29 09:23:41;;;;;;;10.60;3.50;;;17.80;61.50;;;;;;4999935;28;125610;-51
2021/03/29 09:26:10;;;;;;;9.18;3.95;;;17.60;62.50;;;;;;4996104;28;125248;-44
2021/03/29 09:28:44;;;;;;;7.40;3.20;;;17.60;64.20;;;;;;4996032;28;112925;-55
2021/03/29 09:31:25;;;;;;;10.30;3.28;;;17.60;62.60;;;;;;4997183;28;109944;-55
2021/03/29 09:33:57;;;;;;;7.90;3.28;;;17.50;63.30;;;;;;4995593;28;125729;-44
2021/03/29 09:36:29;;;;;;;6.25;2.90;;;17.40;63.20;;;;;;4999064;28;124851;-53
2021/03/29 09:39:02;;;;;;;5.88;2.80;;;17.40;62.90;;;;;;5002477;28;110714;-54
2021/03/29 09:41:34;;;;;;;9.90;2.72;;;17.30;63.10;;;;;;4998620;28;108317;-44
2021/03/29 09:44:10;;;;;;;6.22;2.60;;;17.20;63.40;;;;;;5001390;28;124726;-55
2021/03/29 09:46:42;;;;;;;7.00;2.60;;;17.10;63.50;;;;;;4990473;28;124683;-44
2021/03/29 09:49:17;;;;;;;7.60;2.63;;;17.00;63.40;;;;;;4990768;28;111738;-55
2021/03/29 09:51:51;;;;;;;10.65;2.72;;;17.00;63.70;;;;;;4998998;28;110330;-45
2021/03/29 09:54:38;;;;;;;6.47;2.50;;;17.00;64.00;;;;;;4995730;28;124521;-53
2021/03/29 09:57:18;;;;;;;10.60;2.80;;;16.90;64.00;;;;;;4990893;28;122980;-44
2021/03/29 09:59:52;;;;;;;7.13;3.08;;;16.90;64.00;;;;;;4991329;28;100390;-44
2021/03/29 10:02:26;;;;;;;10.43;2.65;;;16.80;64.20;;;;;;4981434;28;110134;-44
2021/03/29 10:05:11;;;;;;;10.18;2.90;;;16.70;64.40;;;;;;4994524;28;125565;-43
2021/03/29 10:07:54;;;;;;;8.73;2.28;;;16.60;64.50;;;;;;4993558;28;122956;-56
2021/03/29 10:10:29;;;;;;;9.65;2.90;;;16.50;64.80;;;;;;4992198;28;112565;-45
2021/03/29 10:13:11;;;;;;;6.50;2.58;;;16.50;65.00;;;;;;4989751;28;111120;-44
2021/03/29 10:15:42;;;;;;;9.15;2.42;;;16.50;65.30;;;;;;4987261;28;123812;-45
2021/03/29 10:18:14;;;;;;;7.40;2.53;;;16.40;65.10;;;;;;4989780;28;122696;-44
2021/03/29 10:20:46;;;;;;;7.45;2.88;;;16.30;65.50;;;;;;4998834;28;111160;-45
2021/03/29 10:23:31;;;;;;;12.90;2.85;;;16.30;65.10;;;;;;4987966;28;109018;-45
2021/03/29 10:26:19;;;;;;;9.32;3.20;;;16.20;65.30;;;;;;4992871;28;124437;-44
2021/03/29 10:29:04;;;;;;;9.90;2.72;;;16.20;65.70;;;;;;4989881;28;122540;-45
2021/03/29 10:31:37;;;;;;;11.32;3.00;;;16.10;65.80;;;;;;4988532;28;110098;-45
2021/03/29 10:34:09;;;;;;;5.20;1.83;;;16.10;66.10;;;;;;4989267;28;110305;-44
2021/03/29 10:36:39;;;;;;;7.43;2.63;;;16.00;66.10;;;;;;4990693;28;123482;-44
2021/03/29 10:39:09;;;;;;;5.93;2.15;;;16.00;66.20;;;;;;4992108;28;122899;-45
2021/03/29 10:41:38;;;;;;;10.05;2.67;;;16.00;66.20;;;;;;4993117;28;111563;-45
2021/03/29 10:44:09;;;;;;;10.15;2.80;;;15.90;66.40;;;;;;4988031;28;110979;-45
2021/03/29 10:46:42;;;;;;;8.70;2.90;;;15.90;66.50;;;;;;4988146;28;125502;-44
2021/03/29 10:49:13;;;;;;;12.73;3.60;;;16.00;66.60;;;;;;4987572;28;124960;-46
2021/03/29 10:51:43;;;;;;;;;;;15.90;66.50;;;;;;4987688;28;110003;-45
2021/03/29 10:54:15;;;;;;;10.25;2.95;;;15.90;66.40;;;;;;5010856;27;110397;-43
2021/03/29 10:56:45;;;;;;;10.00;2.70;;;15.80;66.50;;;;;;4990871;28;123403;-45
2021/03/29 10:59:15;;;;;;;10.25;2.90;;;15.80;66.50;;;;;;4997507;28;124492;-45
2021/03/29 11:01:45;;;;;;;7.07;3.10;;;15.80;66.60;;;;;;4994179;28;113004;-44
2021/03/29 11:04:14;;;;;;;6.93;3.33;;;15.70;66.90;;;;;;4986784;28;109592;-44
2021/03/29 11:06:46;;;;;;;5.20;3.03;;;15.70;66.80;;;;;;4985890;28;126191;-44
2021/03/29 11:09:17;;;;;;;10.68;3.28;;;15.60;66.80;;;;;;5004290;28;122729;-46
2021/03/29 11:11:50;;;;;;;8.55;2.78;;;15.60;66.90;;;;;;4974852;28;112809;-46
2021/03/29 11:14:20;;;;;;;8.68;2.50;;;15.60;68.50;;;;;;5002966;28;108735;-44
2021/03/29 11:16:55;;;;;;;4.88;2.40;;;15.70;68.70;;;;;;4993634;28;126492;-45
2021/03/29 11:19:27;;;;;;;7.07;3.03;;;15.80;69.00;;;;;;4991958;28;124622;-44
2021/03/29 11:21:57;;;;;;;6.82;2.75;;;15.90;68.80;;;;;;4987945;28;111503;-44
2021/03/29 11:24:27;;;;;;;5.32;2.20;;;16.00;68.50;;;;;;4986433;28;110259;-45
2021/03/29 11:26:56;;;;;;;7.80;3.20;;;16.00;68.30;;;;;;4986796;28;125244;-44
2021/03/29 11:29:27;;;;;;;8.80;2.60;;;16.00;68.30;;;;;;4990816;28;125612;-44
2021/03/29 11:31:57;;;;;;;5.40;2.20;;;16.10;68.10;;;;;;4985049;28;110351;-44
2021/03/29 11:34:28;;;;;;;6.15;2.67;;;16.10;68.30;;;;;;5004209;28;109369;-48
2021/03/29 11:36:58;;;;;;;6.18;1.95;;;16.10;68.50;;;;;;4987681;28;124964;-44
2021/03/29 11:39:28;;;;;;;7.97;2.83;;;16.20;68.50;;;;;;4987302;28;125426;-44
2021/03/29 11:41:57;;;;;;;6.50;3.05;;;16.20;68.50;;;;;;4986991;28;111671;-44
2021/03/29 11:44:28;;;;;;;6.00;2.58;;;16.20;68.60;;;;;;4988429;28;109225;-45
2021/03/29 11:47:00;;;;;;;5.55;2.03;;;16.20;68.50;;;;;;4985977;28;123435;-44
2021/03/29 11:49:31;;;;;;;6.47;2.90;;;16.20;68.60;;;;;;4994620;28;125317;-45
2021/03/29 11:52:02;;;;;;;6.75;2.40;;;16.20;68.60;;;;;;4996433;28;111836;-44
2021/03/29 11:54:34;;;;;;;5.65;2.60;;;16.20;68.50;;;;;;4999382;28;109665;-45
2021/03/29 11:57:04;;;;;;;7.03;2.92;;;16.20;68.50;;;;;;4988626;28;124992;-48
2021/03/29 11:59:43;;;;;;;11.52;3.72;;;16.30;68.90;;;;;;4986068;28;125327;-45
2021/03/29 12:02:19;;;;;;;5.30;2.70;;;16.20;69.00;;;;;;4987855;28;115926;-46
2021/03/29 12:08:03;;;;;;;5.30;2.20;;;16.40;69.70;;;;;;4997575;28;125252;-46
2021/03/29 12:13:14;;;;;;;4.72;2.22;;;16.60;69.90;;;;;;4989630;28;112964;-45
2021/03/29 12:15:47;;;;;;;4.97;2.85;;;16.70;69.80;;;;;;4987520;28;110160;-47
2021/03/29 12:19:01;;;;;;;7.88;2.58;;;16.80;70.30;;;;;;4989669;28;125293;-44
2021/03/29 12:21:21;;;;;;;7.00;2.58;;;16.90;69.80;;;;;;4996596;28;123412;-46
2021/03/29 12:23:54;;;;;;;5.10;2.83;;;17.00;69.60;;;;;;4990493;28;111952;-45
2021/03/29 12:26:26;;;;;;;7.47;2.50;;;17.20;69.30;;;;;;4998120;28;109762;-44
2021/03/29 12:29:00;;;;;;;5.80;2.25;;;17.40;68.80;;;;;;4992897;28;125130;-46
2021/03/29 12:31:31;;;;;;;6.53;2.53;;;17.50;68.20;;;;;;5002818;27;123190;-45
2021/03/29 12:34:05;;;;;;;6.13;2.50;;;17.50;67.90;;;;;;4985557;28;112009;-45
2021/03/29 12:36:46;;;;;;;6.30;2.97;;;17.40;67.90;;;;;;4996839;28;108535;-46
2021/03/29 12:41:53;;;;;;;5.82;3.03;;;17.20;68.20;;;;;;4994023;28;125009;-46
2021/03/29 12:44:26;;;;;;;5.25;2.35;;;17.20;68.40;;;;;;4988652;28;113134;-45
2021/03/29 12:47:02;;;;;;;4.93;2.72;;;17.10;68.40;;;;;;4985958;28;108311;-45
2021/03/29 12:49:34;;;;;;;6.55;3.00;;;17.10;68.50;;;;;;4985188;28;124574;-45
2021/03/29 12:52:05;;;;;;;4.80;2.10;;;17.10;68.60;;;;;;4996956;28;124769;-45
2021/03/29 12:54:37;;;;;;;7.20;3.13;;;17.00;68.70;;;;;;4989651;28;112332;-45
2021/03/29 12:57:09;;;;;;;7.15;2.50;;;17.00;68.80;;;;;;5002891;28;109890;-46
2021/03/29 12:59:39;;;;;;;7.47;3.20;;;17.00;68.80;;;;;;4989474;28;125163;-45
2021/03/29 13:02:09;;;;;;;5.80;2.28;;;17.00;68.90;;;;;;4989361;28;125978;-45
2021/03/29 13:04:42;;;;;;;7.80;3.55;;;17.00;68.90;;;;;;4986776;28;111008;-50
2021/03/29 13:12:18;;;;;;;6.63;3.35;;;16.90;68.90;;;;;;4990635;28;125120;-44
2021/03/29 13:14:59;;;;;;;;;;;16.90;69.00;;;;;;4988731;28;110975;-46
2021/03/29 13:17:31;;;;;;;6.07;2.58;;;16.90;69.20;;;;;;4987115;28;109798;-46
2021/03/29 13:20:05;;;;;;;4.68;2.42;;;16.80;69.10;;;;;;4993320;28;124473;-45
2021/03/29 13:22:40;;;;;;;9.25;3.03;;;16.80;70.00;;;;;;4985334;28;124992;-44
2021/03/29 13:25:26;;;;;;;3.80;1.90;;;16.80;70.10;;;;;;4987914;28;111726;-45
2021/03/29 13:27:59;;;;;;;8.50;2.88;;;16.70;70.20;;;;;;4994807;28;109794;-44
2021/03/29 13:30:32;;;;;;;3.85;2.33;;;16.70;70.50;;;;;;4997284;28;126281;-44